This is the latest recevied weather packets stored in our database for station/object LTAC. If no packets are shown the sender has not sent any weather packets the latest 10 day(s).
| Time | Temp. | Humidity | Pressure | Rain* | Wind** | Luminosity | Snow |
|---|---|---|---|---|---|---|---|
| 1777450504 | 13.89° C | 58% | 1016 hPa | - | - | - | - |
| 1777449605 | 13.89° C | 58% | 1016 hPa | - | - | - | - |
| 1777442405 | 8.89° C | 70% | 1016 hPa | - | - | - | - |
| 1777441504 | 7.78° C | 75% | 1016 hPa | - | - | - | - |
| 1777440605 | 7.78° C | 75% | 1016 hPa | - | - | - | - |
| 1777439704 | 7.22° C | 81% | 1016 hPa | - | - | - | - |
| 1777438805 | 7.22° C | 81% | 1016 hPa | - | - | - | - |
| 1777437005 | 5° C | 86% | 1016 hPa | - | - | - | - |
| 1777436104 | 3.89° C | 93% | 1015 hPa | - | - | - | - |
| 1777432504 | 3.89° C | 86% | 1015 hPa | - | - | - | - |
| 1777431605 | 3.89° C | 86% | 1015 hPa | - | - | - | - |
| 1777430704 | 5° C | 86% | 1015 hPa | - | - | - | - |
| 1777428004 | 6.11° C | 81% | 1015 hPa | - | - | - | - |
| 1777424404 | 5° C | 86% | 1015 hPa | - | - | - | - |
| 1777423503 | 7.78° C | 75% | 1015 hPa | - | - | - | - |
| 1777422604 | 7.78° C | 75% | 1015 hPa | - | - | - | - |
| 1777419904 | 7.22° C | 81% | 1015 hPa | - | - | - | - |
| 1777419005 | 7.22° C | 81% | 1015 hPa | - | - | - | - |
| 1777414503 | 8.89° C | 76% | 1015 hPa | - | - | - | - |
| 1777409104 | 11.11° C | 66% | 1015 hPa | - | - | - | - |
| 1777406404 | 11.11° C | 71% | 1015 hPa | - | - | - | - |
| 1777404604 | 10° C | 76% | 1015 hPa | - | - | - | - |
| 1777402804 | 10° C | 71% | 1014 hPa | - | - | - | - |
| 1777401904 | 12.22° C | 66% | 1014 hPa | - | - | - | - |
| 1777399204 | 13.89° C | 50% | 1014 hPa | - | - | - | - |
* Rain since midnight (hover to see other rain measurements)
** Current wind speed in m/s (hover to see current wind gust speed)